createdAt,value
2018-01-13T00:01:06.819Z,30.40
2018-01-13T00:03:34.291Z,32.97
2018-01-13T00:06:01.762Z,30.75
2018-01-13T00:08:29.212Z,33.70
2018-01-13T00:10:56.685Z,32.75
2018-01-13T00:13:24.163Z,34.75
2018-01-13T00:15:51.612Z,34.63
2018-01-13T00:18:19.088Z,33.53
2018-01-13T00:20:46.544Z,31.85
2018-01-13T00:23:14.008Z,33.22
2018-01-13T00:25:41.498Z,33.17
2018-01-13T00:28:08.952Z,32.03
2018-01-13T00:30:36.400Z,32.60
2018-01-13T00:33:03.891Z,33.72
2018-01-13T00:35:31.368Z,30.23
2018-01-13T00:37:58.819Z,32.88
2018-01-13T00:40:26.284Z,33.50
2018-01-13T00:42:53.759Z,32.40
2018-01-13T00:45:21.220Z,34.10
2018-01-13T00:47:48.701Z,32.80
2018-01-13T00:50:16.158Z,33.72
2018-01-13T00:52:43.608Z,32.83
2018-01-13T00:55:11.071Z,32.60
2018-01-13T00:57:38.537Z,34.25
2018-01-13T01:00:05.990Z,34.50
2018-01-13T01:02:33.479Z,32.83
2018-01-13T01:05:00.950Z,30.83
2018-01-13T01:07:28.424Z,33.25
2018-01-13T01:09:55.916Z,35.58
2018-01-13T01:12:23.398Z,32.78
2018-01-13T01:14:50.883Z,34.63
2018-01-13T01:17:18.365Z,35.42
2018-01-13T01:19:45.949Z,35.22
2018-01-13T01:22:13.440Z,33.42
2018-01-13T01:24:40.908Z,33.75
2018-01-13T01:27:08.417Z,34.65
2018-01-13T01:29:36.046Z,31.85
2018-01-13T01:32:03.539Z,31.60
2018-01-13T01:34:31.005Z,33.17
2018-01-13T01:36:58.478Z,31.58
2018-01-13T01:39:25.943Z,32.92
2018-01-13T01:41:53.401Z,31.77
2018-01-13T01:44:20.874Z,29.25
2018-01-13T01:46:48.336Z,29.65
2018-01-13T01:49:15.796Z,28.35
2018-01-13T01:51:43.259Z,30.83
2018-01-13T01:54:10.732Z,32.13
2018-01-13T01:56:38.184Z,28.80
2018-01-13T01:59:05.663Z,28.92
2018-01-13T02:01:33.171Z,29.65
2018-01-13T02:04:00.643Z,30.35
2018-01-13T02:06:28.114Z,29.10
2018-01-13T02:08:55.584Z,31.02
2018-01-13T02:11:23.045Z,28.73
2018-01-13T02:13:50.569Z,28.02
2018-01-13T02:16:18.040Z,29.40
2018-01-13T02:18:45.527Z,30.83
2018-01-13T02:21:12.979Z,30.02
2018-01-13T02:23:40.448Z,28.83
2018-01-13T02:26:07.909Z,29.73
2018-01-13T02:28:35.364Z,29.33
2018-01-13T02:31:02.900Z,30.58
2018-01-13T02:33:30.365Z,28.85
2018-01-13T02:35:57.851Z,28.85
2018-01-13T02:38:25.320Z,28.17
2018-01-13T02:40:52.803Z,28.73
2018-01-13T02:43:20.286Z,29.95
2018-01-13T02:45:47.770Z,29.23
2018-01-13T02:48:15.243Z,28.15
2018-01-13T02:50:42.691Z,28.23
2018-01-13T02:53:10.185Z,27.55
2018-01-13T02:55:37.643Z,26.87
2018-01-13T02:58:05.115Z,27.08
2018-01-13T03:00:32.592Z,28.73
2018-01-13T03:03:00.072Z,27.40
2018-01-13T03:05:27.542Z,26.08
2018-01-13T03:07:55.033Z,28.62
2018-01-13T03:10:22.558Z,29.85
2018-01-13T03:12:50.014Z,26.33
2018-01-13T03:15:17.556Z,27.27
2018-01-13T03:17:45.030Z,27.60
2018-01-13T03:20:12.537Z,28.50
2018-01-13T03:22:40.022Z,29.25
2018-01-13T03:25:07.483Z,28.77
2018-01-13T03:27:34.950Z,27.10
2018-01-13T03:30:02.440Z,27.98
2018-01-13T03:32:29.920Z,26.95
2018-01-13T03:34:57.382Z,26.85
2018-01-13T03:37:24.847Z,28.83
2018-01-13T03:39:52.305Z,26.90
2018-01-13T03:42:19.759Z,26.67
2018-01-13T03:44:47.233Z,28.20
2018-01-13T03:47:14.697Z,26.60
2018-01-13T03:49:42.167Z,26.05
2018-01-13T03:52:09.631Z,26.35
2018-01-13T03:54:37.099Z,27.83
2018-01-13T03:57:04.564Z,25.83
2018-01-13T03:59:32.035Z,26.27
2018-01-13T04:01:59.518Z,27.52
2018-01-13T04:04:26.978Z,27.10
2018-01-13T04:06:54.463Z,25.58
2018-01-13T04:09:21.934Z,28.23
2018-01-13T04:11:49.383Z,24.90
2018-01-13T04:14:16.856Z,27.73
2018-01-13T04:16:44.326Z,28.02
2018-01-13T04:19:11.836Z,25.35
2018-01-13T04:21:39.305Z,26.60
2018-01-13T04:24:06.771Z,25.83
2018-01-13T04:26:34.240Z,25.10
2018-01-13T04:29:01.712Z,25.83
2018-01-13T04:31:29.324Z,27.52
2018-01-13T04:33:57.075Z,28.10
2018-01-13T04:36:24.523Z,26.52
2018-01-13T04:38:52.055Z,24.98
2018-01-13T04:41:19.492Z,26.27
2018-01-13T04:43:46.963Z,25.50
2018-01-13T04:46:14.432Z,26.92
2018-01-13T04:48:41.889Z,26.23
2018-01-13T04:51:09.526Z,24.45
2018-01-13T04:53:37.014Z,27.35
2018-01-13T04:56:04.480Z,27.55
2018-01-13T04:58:32.009Z,26.27
2018-01-13T05:00:59.573Z,28.10
2018-01-13T05:03:27.246Z,26.37
2018-01-13T05:05:54.691Z,29.12
2018-01-13T05:08:23.410Z,27.23
2018-01-13T05:10:51.865Z,28.30
2018-01-13T05:13:19.425Z,27.60
2018-01-13T05:15:46.956Z,30.95
2018-01-13T05:18:14.431Z,31.40
2018-01-13T05:20:41.952Z,29.50
2018-01-13T05:23:09.446Z,28.77
2018-01-13T05:25:36.924Z,28.90
2018-01-13T05:28:04.381Z,30.30
2018-01-13T05:30:31.883Z,32.13
2018-01-13T05:32:59.356Z,30.08
2018-01-13T05:35:26.811Z,29.80
2018-01-13T05:37:54.298Z,29.23
2018-01-13T05:40:21.780Z,28.95
2018-01-13T05:42:49.252Z,29.50
2018-01-13T05:45:16.727Z,29.48
2018-01-13T05:47:44.203Z,30.77
2018-01-13T05:50:11.660Z,28.70
2018-01-13T05:52:39.124Z,32.28
2018-01-13T05:55:06.578Z,28.52
2018-01-13T05:57:34.055Z,32.42
2018-01-13T06:00:01.539Z,28.95
2018-01-13T06:02:29.003Z,32.80
2018-01-13T06:04:56.464Z,30.27
2018-01-13T06:07:23.940Z,30.20
2018-01-13T06:09:51.403Z,30.12
2018-01-13T06:12:18.884Z,30.05
2018-01-13T06:14:46.375Z,29.87
2018-01-13T06:17:13.853Z,30.65
2018-01-13T06:19:41.326Z,31.62
2018-01-13T06:22:08.819Z,31.52
2018-01-13T06:24:36.287Z,33.58
2018-01-13T06:27:03.762Z,32.33
2018-01-13T06:29:31.228Z,29.40
2018-01-13T06:31:58.688Z,31.52
2018-01-13T06:34:26.158Z,28.98
2018-01-13T06:36:53.637Z,29.35
2018-01-13T06:39:21.117Z,28.60
2018-01-13T06:41:48.590Z,29.42
2018-01-13T06:44:16.064Z,30.62
2018-01-13T06:46:43.526Z,29.80
2018-01-13T06:49:11.003Z,29.98
2018-01-13T06:51:38.473Z,30.70
2018-01-13T06:54:05.928Z,30.95
2018-01-13T06:56:33.390Z,30.88
2018-01-13T06:59:00.892Z,29.25
2018-01-13T07:01:28.344Z,30.20
2018-01-13T07:03:55.808Z,30.00
2018-01-13T07:06:23.291Z,29.60
2018-01-13T07:08:50.740Z,29.55
2018-01-13T07:11:18.214Z,30.62
2018-01-13T07:13:45.693Z,28.08
2018-01-13T07:16:13.164Z,30.40
2018-01-13T07:18:40.634Z,30.00
2018-01-13T07:21:08.100Z,30.92
2018-01-13T07:23:35.567Z,29.05
2018-01-13T07:26:03.028Z,30.73
2018-01-13T07:28:30.522Z,29.42
2018-01-13T07:30:58.002Z,29.42
2018-01-13T07:33:25.455Z,28.95
2018-01-13T07:35:52.940Z,30.15
2018-01-13T07:38:20.396Z,28.50
2018-01-13T07:40:47.865Z,29.58
2018-01-13T07:43:15.355Z,29.70
2018-01-13T07:45:42.856Z,32.58
2018-01-13T07:48:10.294Z,30.67
2018-01-13T07:50:37.810Z,30.67
2018-01-13T07:53:05.270Z,34.25
2018-01-13T07:55:32.747Z,30.77
2018-01-13T07:58:00.230Z,30.70
2018-01-13T08:00:27.684Z,33.28
2018-01-13T08:02:55.155Z,33.08
2018-01-13T08:05:22.646Z,29.55
2018-01-13T08:07:50.119Z,32.60
2018-01-13T08:10:17.576Z,31.23
2018-01-13T08:12:45.058Z,31.20
2018-01-13T08:15:12.534Z,31.30
2018-01-13T08:17:39.995Z,29.65
2018-01-13T08:20:07.483Z,29.37
2018-01-13T08:22:34.955Z,30.05
2018-01-13T08:25:02.408Z,30.45
2018-01-13T08:27:29.901Z,30.65
2018-01-13T08:29:57.394Z,30.98
2018-01-13T08:32:24.849Z,31.27
2018-01-13T08:34:52.317Z,32.35
2018-01-13T08:37:19.767Z,31.15
2018-01-13T08:39:47.256Z,31.85
2018-01-13T08:42:14.739Z,31.77
2018-01-13T08:44:42.210Z,32.03
2018-01-13T08:47:09.684Z,31.60
2018-01-13T08:49:37.170Z,31.35
2018-01-13T08:52:04.671Z,32.53
2018-01-13T08:54:32.136Z,31.42
2018-01-13T08:56:59.610Z,33.28
2018-01-13T08:59:27.080Z,32.08
2018-01-13T09:01:58.011Z,30.70
2018-01-13T09:04:25.486Z,30.33
2018-01-13T09:06:52.956Z,31.23
2018-01-13T09:09:20.411Z,32.03
2018-01-13T09:11:47.895Z,31.23
2018-01-13T09:14:15.382Z,32.95
2018-01-13T09:16:42.850Z,31.55
2018-01-13T09:19:10.328Z,33.17
2018-01-13T09:21:37.784Z,32.38
2018-01-13T09:24:05.240Z,33.38
2018-01-13T09:26:32.730Z,32.70
2018-01-13T09:29:00.201Z,33.28
2018-01-13T09:31:27.684Z,33.13
2018-01-13T09:33:55.152Z,31.42
2018-01-13T09:36:22.630Z,31.62
2018-01-13T09:38:50.110Z,31.83
2018-01-13T09:41:17.576Z,31.08
2018-01-13T09:43:45.033Z,32.38
2018-01-13T09:46:12.512Z,30.17
2018-01-13T09:48:39.990Z,30.45
2018-01-13T09:51:07.453Z,31.15
2018-01-13T09:53:34.930Z,30.73
2018-01-13T09:56:02.385Z,30.70
2018-01-13T09:58:29.843Z,31.30
2018-01-13T10:00:57.335Z,32.95
2018-01-13T10:03:25.637Z,33.10
2018-01-13T10:05:53.116Z,31.15
2018-01-13T10:08:20.607Z,31.40
2018-01-13T10:10:48.084Z,31.40
2018-01-13T10:13:15.564Z,34.15
2018-01-13T10:15:43.055Z,33.00
2018-01-13T10:18:10.536Z,33.03
2018-01-13T10:20:37.999Z,31.42
2018-01-13T10:23:05.477Z,34.13
2018-01-13T10:25:32.973Z,32.58
2018-01-13T10:28:00.447Z,32.50
2018-01-13T10:30:27.917Z,33.38
2018-01-13T10:32:55.395Z,32.78
2018-01-13T10:35:22.873Z,31.00
2018-01-13T10:37:50.341Z,30.37
2018-01-13T10:40:17.822Z,31.92
2018-01-13T10:42:45.319Z,32.33
2018-01-13T10:45:12.795Z,31.87
2018-01-13T10:47:40.274Z,32.25
2018-01-13T10:50:07.753Z,32.88
2018-01-13T10:52:35.211Z,31.95
2018-01-13T10:55:02.668Z,31.80
2018-01-13T10:57:30.154Z,33.08
2018-01-13T10:59:57.644Z,31.62
2018-01-13T11:02:25.128Z,32.38
2018-01-13T11:04:52.592Z,33.20
2018-01-13T11:07:20.071Z,32.22
2018-01-13T11:09:47.545Z,30.62
2018-01-13T11:12:15.023Z,33.45
2018-01-13T11:14:42.488Z,32.08
2018-01-13T11:17:09.975Z,31.10
2018-01-13T11:19:37.432Z,33.25
2018-01-13T11:22:04.907Z,31.30
2018-01-13T11:24:32.395Z,33.50
2018-01-13T11:26:59.855Z,32.20
2018-01-13T11:29:27.309Z,33.35
2018-01-13T11:31:54.780Z,31.42
2018-01-13T11:34:22.231Z,31.40
2018-01-13T11:36:49.688Z,31.75
2018-01-13T11:39:17.172Z,31.50
2018-01-13T11:41:44.648Z,31.45
2018-01-13T11:44:12.124Z,33.33
2018-01-13T11:46:39.592Z,31.00
2018-01-13T11:49:07.073Z,32.50
2018-01-13T11:51:34.536Z,33.03
2018-01-13T11:54:02.004Z,32.67
2018-01-13T11:56:29.465Z,34.65
2018-01-13T11:58:56.945Z,33.75
2018-01-13T12:01:24.417Z,32.45
2018-01-13T12:03:51.886Z,31.80
2018-01-13T12:06:19.362Z,31.08
2018-01-13T12:08:46.836Z,29.90
2018-01-13T12:11:14.300Z,30.20
2018-01-13T12:13:41.783Z,30.70
2018-01-13T12:16:09.266Z,29.73
2018-01-13T12:18:36.759Z,29.80
2018-01-13T12:21:04.318Z,32.03
2018-01-13T12:23:31.799Z,29.90
2018-01-13T12:25:59.273Z,34.35
2018-01-13T12:28:26.736Z,28.85
2018-01-13T12:30:54.209Z,30.20
2018-01-13T12:33:21.711Z,27.50
2018-01-13T12:35:49.184Z,28.02
2018-01-13T12:38:16.635Z,29.73
2018-01-13T12:40:44.131Z,29.77
2018-01-13T12:43:11.587Z,28.73
2018-01-13T12:45:39.057Z,28.25
2018-01-13T12:48:06.551Z,24.60
2018-01-13T12:50:34.015Z,26.23
2018-01-13T12:53:01.473Z,28.95
2018-01-13T12:55:28.939Z,28.40
2018-01-13T12:57:56.416Z,29.25
2018-01-13T13:00:23.869Z,28.65
2018-01-13T13:02:51.340Z,29.50
2018-01-13T13:05:18.796Z,29.40
2018-01-13T13:07:46.257Z,28.05
2018-01-13T13:10:13.731Z,29.75
2018-01-13T13:12:41.203Z,27.25
2018-01-13T13:15:08.661Z,28.35
2018-01-13T13:17:36.151Z,28.77
2018-01-13T13:20:03.607Z,27.00
2018-01-13T13:22:31.063Z,26.20
2018-01-13T13:24:58.572Z,25.98
2018-01-13T13:27:26.017Z,24.05
2018-01-13T13:29:53.473Z,25.62
2018-01-13T13:32:20.963Z,27.45
2018-01-13T13:34:48.450Z,26.33
2018-01-13T13:37:15.919Z,28.42
2018-01-13T13:39:43.406Z,27.13
2018-01-13T13:42:10.855Z,27.37
2018-01-13T13:44:38.388Z,27.77
2018-01-13T13:47:05.855Z,28.25
2018-01-13T13:49:33.308Z,30.60
2018-01-13T13:52:00.764Z,30.00
2018-01-13T13:54:28.239Z,29.42
2018-01-13T13:56:55.895Z,29.70
2018-01-13T13:59:23.434Z,29.37
2018-01-13T14:01:50.905Z,28.98
2018-01-13T14:04:18.374Z,31.12
2018-01-13T14:06:45.916Z,29.17
2018-01-13T14:09:13.384Z,29.92
2018-01-13T14:11:40.844Z,30.62
2018-01-13T14:14:08.300Z,30.20
2018-01-13T14:16:35.790Z,29.92
2018-01-13T14:19:03.258Z,29.23
2018-01-13T14:21:30.730Z,29.23
2018-01-13T14:23:58.226Z,28.95
2018-01-13T14:26:25.686Z,30.80
2018-01-13T14:28:53.144Z,29.85
2018-01-13T14:31:20.630Z,29.17
2018-01-13T14:33:48.103Z,28.65
2018-01-13T14:36:15.575Z,28.50
2018-01-13T14:38:43.039Z,29.15
2018-01-13T14:41:10.513Z,29.95
2018-01-13T14:43:37.991Z,28.30
2018-01-13T14:46:05.463Z,29.15
2018-01-13T14:48:32.924Z,30.88
2018-01-13T14:51:00.395Z,29.77
2018-01-13T14:53:27.899Z,28.75
2018-01-13T14:55:55.386Z,30.45
2018-01-13T14:58:22.836Z,31.52
2018-01-13T15:00:50.308Z,31.65
2018-01-13T15:03:17.760Z,30.10
2018-01-13T15:05:45.239Z,32.50
2018-01-13T15:08:12.730Z,30.92
2018-01-13T15:10:40.250Z,29.75
2018-01-13T15:13:07.723Z,31.98
2018-01-13T15:15:35.210Z,30.45
2018-01-13T15:18:02.681Z,29.48
2018-01-13T15:20:30.131Z,31.77
2018-01-13T15:22:57.597Z,29.83
2018-01-13T15:25:25.071Z,30.65
2018-01-13T15:27:52.520Z,30.08
2018-01-13T15:30:19.987Z,31.02
2018-01-13T15:32:47.444Z,30.98
2018-01-13T15:35:14.904Z,31.23
2018-01-13T15:37:42.392Z,31.77
2018-01-13T15:40:09.864Z,30.73
2018-01-13T15:42:37.320Z,31.17
2018-01-13T15:45:04.801Z,30.23
2018-01-13T15:47:32.273Z,29.10
2018-01-13T15:49:59.725Z,29.67
2018-01-13T15:52:27.196Z,30.50
2018-01-13T15:54:54.666Z,29.80
2018-01-13T15:57:22.124Z,30.10
2018-01-13T15:59:49.600Z,32.13
2018-01-13T16:02:17.053Z,28.27
2018-01-13T16:04:44.527Z,30.85
2018-01-13T16:07:12.015Z,29.23
2018-01-13T16:09:39.492Z,29.83
2018-01-13T16:12:06.947Z,30.02
2018-01-13T16:14:34.443Z,31.05
2018-01-13T16:17:01.900Z,31.12
2018-01-13T16:19:29.351Z,30.90
2018-01-13T16:21:56.816Z,30.75
2018-01-13T16:24:24.287Z,28.12
2018-01-13T16:26:51.771Z,30.33
2018-01-13T16:29:19.240Z,30.35
2018-01-13T16:31:46.715Z,33.53
2018-01-13T16:34:14.176Z,31.40
2018-01-13T16:36:41.712Z,30.95
2018-01-13T16:39:09.201Z,29.85
2018-01-13T16:41:36.651Z,31.87
2018-01-13T16:44:04.116Z,33.15
2018-01-13T16:46:31.582Z,31.52
2018-01-13T16:48:59.050Z,34.58
2018-01-13T16:51:26.520Z,32.72
2018-01-13T16:53:53.972Z,31.33
2018-01-13T16:56:21.463Z,32.75
2018-01-13T16:58:48.943Z,34.10
2018-01-13T17:01:16.397Z,33.40
2018-01-13T17:03:43.868Z,30.48
2018-01-13T17:06:11.327Z,32.42
2018-01-13T17:08:38.819Z,29.85
2018-01-13T17:11:06.288Z,29.45
2018-01-13T17:13:33.748Z,31.12
2018-01-13T17:16:01.216Z,31.10
2018-01-13T17:18:28.694Z,30.90
2018-01-13T17:20:56.156Z,31.55
2018-01-13T17:23:23.651Z,29.95
2018-01-13T17:25:51.139Z,30.02
2018-01-13T17:28:17.909Z,29.98
2018-01-13T17:30:45.417Z,31.05
2018-01-13T17:33:12.907Z,31.23
2018-01-13T17:35:40.627Z,28.80
2018-01-13T17:38:08.099Z,30.77
2018-01-13T17:40:35.560Z,29.90
2018-01-13T17:43:03.034Z,30.65
2018-01-13T17:45:30.530Z,29.08
2018-01-13T17:47:58.010Z,29.65
2018-01-13T17:50:25.522Z,32.05
2018-01-13T17:52:52.992Z,31.10
2018-01-13T17:55:20.499Z,31.12
2018-01-13T17:57:47.952Z,32.03
2018-01-13T18:00:15.427Z,32.42
2018-01-13T18:02:42.894Z,30.60
2018-01-13T18:05:10.379Z,31.20
2018-01-13T18:07:37.847Z,31.42
2018-01-13T18:10:05.326Z,31.08
2018-01-13T18:12:32.776Z,31.35
2018-01-13T18:15:00.244Z,31.08
2018-01-13T18:17:27.708Z,31.92
2018-01-13T18:19:55.208Z,30.05
2018-01-13T18:22:22.689Z,30.92
2018-01-13T18:24:50.151Z,31.92
2018-01-13T18:27:17.634Z,36.78
2018-01-13T18:29:45.127Z,33.70
2018-01-13T18:32:12.592Z,32.50
2018-01-13T18:34:40.071Z,32.42
2018-01-13T18:37:07.564Z,31.77
2018-01-13T18:39:35.035Z,31.05
2018-01-13T18:42:02.507Z,31.50
2018-01-13T18:44:29.999Z,32.00
2018-01-13T18:46:57.479Z,29.55
2018-01-13T18:49:24.965Z,30.52
2018-01-13T18:51:52.431Z,30.58
2018-01-13T18:54:19.910Z,31.52
2018-01-13T18:56:47.384Z,30.37
2018-01-13T18:59:14.859Z,31.20
2018-01-13T19:01:42.331Z,30.48
2018-01-13T19:04:09.809Z,32.17
2018-01-13T19:06:37.277Z,31.70
2018-01-13T19:09:04.744Z,30.98
2018-01-13T19:11:32.303Z,30.40
2018-01-13T19:13:59.791Z,28.62
2018-01-13T19:16:27.262Z,31.75
2018-01-13T19:18:54.729Z,33.25
2018-01-13T19:21:22.191Z,33.75
2018-01-13T19:23:49.658Z,34.22
2018-01-13T19:26:17.151Z,32.75
2018-01-13T19:28:44.619Z,49.15
2018-01-13T19:31:12.095Z,38.35
2018-01-13T19:33:39.563Z,32.90
2018-01-13T19:36:07.047Z,32.40
2018-01-13T19:38:34.514Z,32.25
2018-01-13T19:41:02.003Z,30.55
2018-01-13T19:43:29.463Z,32.45
2018-01-13T19:45:56.933Z,31.37
2018-01-13T19:48:24.418Z,31.60
2018-01-13T19:50:51.900Z,31.45
2018-01-13T19:53:19.380Z,28.67
2018-01-13T19:55:46.852Z,30.88
2018-01-13T19:58:14.307Z,29.73
2018-01-13T20:00:41.788Z,29.20
2018-01-13T20:03:09.282Z,27.40
2018-01-13T20:05:36.754Z,28.73
2018-01-13T20:08:04.231Z,29.27
2018-01-13T20:10:31.716Z,28.87
2018-01-13T20:12:59.172Z,28.77
2018-01-13T20:15:26.636Z,27.13
2018-01-13T20:17:54.117Z,28.23
2018-01-13T20:20:21.567Z,29.77
2018-01-13T20:22:49.263Z,28.17
2018-01-13T20:25:16.747Z,28.80
2018-01-13T20:27:44.219Z,30.02
2018-01-13T20:30:11.705Z,28.17
2018-01-13T20:32:39.182Z,28.80
2018-01-13T20:35:06.712Z,27.92
2018-01-13T20:37:34.197Z,28.87
2018-01-13T20:40:01.660Z,28.50
2018-01-13T20:42:29.142Z,26.52
2018-01-13T20:44:56.609Z,28.20
2018-01-13T20:47:24.065Z,28.55
2018-01-13T20:49:51.555Z,29.05
2018-01-13T20:52:19.087Z,28.83
2018-01-13T20:54:46.542Z,31.17
2018-01-13T20:57:14.036Z,28.95
2018-01-13T20:59:41.511Z,28.05
2018-01-13T21:02:08.980Z,28.83
2018-01-13T21:04:36.448Z,26.90
2018-01-13T21:07:03.916Z,27.08
2018-01-13T21:09:31.376Z,27.52
2018-01-13T21:11:58.851Z,28.12
2018-01-13T21:14:26.377Z,29.30
2018-01-13T21:16:53.947Z,28.67
2018-01-13T21:19:21.405Z,27.67
2018-01-13T21:21:48.876Z,29.08
2018-01-13T21:24:16.351Z,29.37
2018-01-13T21:26:43.842Z,29.48
2018-01-13T21:29:11.529Z,30.02
2018-01-13T21:31:39.014Z,28.12
2018-01-13T21:34:06.490Z,30.88
2018-01-13T21:36:33.947Z,27.60
2018-01-13T21:39:01.420Z,29.83
2018-01-13T21:41:28.886Z,30.35
2018-01-13T21:43:56.349Z,26.42
2018-01-13T21:46:23.823Z,26.95
2018-01-13T21:48:51.295Z,28.52
2018-01-13T21:51:18.775Z,28.25
2018-01-13T21:53:46.268Z,27.35
2018-01-13T21:56:13.720Z,27.85
2018-01-13T21:58:41.167Z,24.27
2018-01-13T22:01:08.636Z,24.67
2018-01-13T22:03:36.154Z,22.35
2018-01-13T22:06:03.602Z,22.65
2018-01-13T22:08:31.078Z,22.55
2018-01-13T22:10:58.551Z,24.63
2018-01-13T22:13:26.023Z,22.23
2018-01-13T22:15:53.492Z,22.15
2018-01-13T22:18:20.966Z,21.60
2018-01-13T22:20:48.439Z,21.52
2018-01-13T22:23:15.934Z,22.92
2018-01-13T22:25:43.397Z,20.98
2018-01-13T22:28:10.861Z,21.80
2018-01-13T22:30:38.354Z,22.52
2018-01-13T22:33:05.827Z,22.80
2018-01-13T22:35:33.295Z,21.85
2018-01-13T22:38:00.757Z,23.42
2018-01-13T22:40:28.248Z,22.45
2018-01-13T22:42:55.709Z,21.65
2018-01-13T22:45:23.185Z,24.90
2018-01-13T22:47:50.644Z,23.08
2018-01-13T22:50:18.119Z,24.15
2018-01-13T22:52:45.612Z,24.08
2018-01-13T22:55:13.069Z,25.73
2018-01-13T22:57:40.530Z,25.73
2018-01-13T23:00:08.002Z,24.80
2018-01-13T23:02:35.477Z,24.77
2018-01-13T23:05:02.952Z,25.55
2018-01-13T23:07:30.428Z,27.45
2018-01-13T23:09:57.888Z,27.58
2018-01-13T23:12:25.343Z,27.02
2018-01-13T23:14:52.821Z,27.30
2018-01-13T23:17:20.294Z,27.90
2018-01-13T23:19:47.784Z,27.20
2018-01-13T23:22:15.266Z,26.17
2018-01-13T23:24:42.750Z,28.40
2018-01-13T23:27:22.001Z,29.05
2018-01-13T23:29:49.476Z,28.92
2018-01-13T23:32:16.937Z,26.30
2018-01-13T23:34:44.412Z,29.25
2018-01-13T23:37:11.886Z,29.37
2018-01-13T23:39:39.360Z,28.75
2018-01-13T23:42:06.849Z,30.45
2018-01-13T23:44:34.323Z,29.35
2018-01-13T23:47:01.798Z,31.50
2018-01-13T23:49:29.344Z,30.70
2018-01-13T23:51:56.809Z,30.20
2018-01-13T23:54:24.265Z,30.73
2018-01-13T23:56:51.754Z,30.80
2018-01-13T23:59:19.209Z,31.95
